createdAt,value
2023-01-29T00:02:37.823Z,0.90
2023-01-29T00:07:40.812Z,1.03
2023-01-29T00:12:43.757Z,1.07
2023-01-29T00:17:46.750Z,1.00
2023-01-29T00:22:49.889Z,0.90
2023-01-29T00:27:52.848Z,0.90
2023-01-29T00:32:55.804Z,0.79
2023-01-29T00:37:59.422Z,0.72
2023-01-29T00:43:20.728Z,0.69
2023-01-29T00:48:23.674Z,0.73
2023-01-29T00:53:26.651Z,0.73
2023-01-29T00:58:34.467Z,0.73
2023-01-29T01:03:42.205Z,0.67
2023-01-29T01:09:04.184Z,0.64
2023-01-29T01:14:07.202Z,0.76
2023-01-29T01:19:10.701Z,0.88
2023-01-29T01:24:13.800Z,0.88
2023-01-29T01:29:16.804Z,0.76
2023-01-29T01:34:20.131Z,0.78
2023-01-29T01:39:25.079Z,0.83
2023-01-29T01:44:58.504Z,0.73
2023-01-29T01:50:33.554Z,0.66
2023-01-29T01:55:45.236Z,0.51
2023-01-29T02:00:48.545Z,0.36
2023-01-29T02:06:12.969Z,0.19
2023-01-29T02:11:17.239Z,0.08
2023-01-29T02:16:22.754Z,0.02
2023-01-29T02:22:04.845Z,0.05
2023-01-29T02:27:32.971Z,0.13
2023-01-29T02:32:58.767Z,0.15
2023-01-29T02:38:01.770Z,0.18
2023-01-29T02:43:30.254Z,0.23
2023-01-29T02:48:47.914Z,0.26
2023-01-29T02:54:44.052Z,0.28
2023-01-29T03:00:39.135Z,0.25
2023-01-29T03:05:57.217Z,0.05
2023-01-29T03:11:05.789Z,0.03
2023-01-29T03:16:41.159Z,0.12
2023-01-29T03:21:51.336Z,0.14
2023-01-29T03:27:12.690Z,0.16
2023-01-29T03:32:17.529Z,0.17
2023-01-29T03:37:44.536Z,0.14
2023-01-29T03:43:04.995Z,0.09
2023-01-29T03:48:35.690Z,0.08
2023-01-29T03:53:44.119Z,0.12
2023-01-29T03:58:59.717Z,0.17
2023-01-29T04:04:23.762Z,0.22
2023-01-29T04:09:37.981Z,0.27
2023-01-29T04:14:41.526Z,0.34
2023-01-29T04:19:45.048Z,0.36
2023-01-29T04:24:49.766Z,0.37
2023-01-29T04:30:01.713Z,0.38
2023-01-29T04:35:10.635Z,0.42
2023-01-29T04:40:39.055Z,0.44
2023-01-29T04:46:10.491Z,0.41
2023-01-29T04:51:32.644Z,0.42
2023-01-29T04:57:02.840Z,0.37
2023-01-29T05:02:08.309Z,0.37
2023-01-29T05:07:15.389Z,0.31
2023-01-29T05:12:19.095Z,0.31
2023-01-29T05:17:22.178Z,0.27
2023-01-29T05:22:26.756Z,0.26
2023-01-29T05:27:54.248Z,0.27
2023-01-29T05:32:57.240Z,0.29
2023-01-29T05:38:00.176Z,0.30
2023-01-29T05:43:03.379Z,0.30
2023-01-29T05:48:06.357Z,0.30
2023-01-29T05:53:09.567Z,0.28
2023-01-29T05:58:13.010Z,0.30
2023-01-29T06:03:15.996Z,0.32
2023-01-29T06:08:18.990Z,0.34
2023-01-29T06:13:23.650Z,0.36
2023-01-29T06:18:26.823Z,0.37
2023-01-29T06:23:30.349Z,0.38
2023-01-29T06:28:33.667Z,0.39
2023-01-29T06:33:36.596Z,0.42
2023-01-29T06:38:39.522Z,0.50
2023-01-29T06:43:45.305Z,0.65
2023-01-29T06:48:48.305Z,0.69
2023-01-29T06:53:51.284Z,0.67
2023-01-29T06:58:54.381Z,0.66
2023-01-29T07:03:57.334Z,0.65
2023-01-29T07:09:00.337Z,0.61
2023-01-29T07:14:03.572Z,0.57
2023-01-29T07:19:06.504Z,0.50
2023-01-29T07:24:09.604Z,0.48
2023-01-29T07:29:12.596Z,0.46
2023-01-29T07:34:15.562Z,0.48
2023-01-29T07:39:18.583Z,0.45
2023-01-29T07:44:21.551Z,0.44
2023-01-29T07:49:24.569Z,0.44
2023-01-29T07:54:27.532Z,0.41
2023-01-29T07:59:30.619Z,0.39
2023-01-29T08:04:33.545Z,0.45
2023-01-29T08:09:36.663Z,0.55
2023-01-29T08:14:40.572Z,0.65
2023-01-29T08:19:43.531Z,0.72
2023-01-29T08:24:54.120Z,0.76
2023-01-29T08:30:03.949Z,0.73
2023-01-29T08:35:10.143Z,0.72
2023-01-29T08:40:13.887Z,0.69
2023-01-29T08:45:17.058Z,0.66
2023-01-29T08:50:20.233Z,0.64
2023-01-29T08:55:23.332Z,0.64
2023-01-29T09:00:29.157Z,0.64
2023-01-29T09:05:32.094Z,0.65
2023-01-29T09:10:35.969Z,0.70
2023-01-29T09:15:38.939Z,0.73
2023-01-29T09:20:41.912Z,0.75
2023-01-29T09:25:44.986Z,0.79
2023-01-29T09:30:48.109Z,0.84
2023-01-29T09:35:51.162Z,0.85
2023-01-29T09:41:18.795Z,0.88
2023-01-29T09:46:46.645Z,0.93
2023-01-29T09:51:56.382Z,0.88
2023-01-29T09:57:00.848Z,0.93
2023-01-29T10:02:50.731Z,1.06
2023-01-29T10:08:33.981Z,1.16
2023-01-29T10:14:01.689Z,1.15
2023-01-29T10:19:54.007Z,1.14
2023-01-29T10:25:11.894Z,1.22
2023-01-29T10:30:40.349Z,1.23
2023-01-29T10:35:50.171Z,1.23
2023-01-29T10:41:08.268Z,1.22
2023-01-29T10:46:44.875Z,1.19
2023-01-29T10:52:31.803Z,1.19
2023-01-29T10:57:53.381Z,1.16
2023-01-29T11:02:56.482Z,1.11
2023-01-29T11:08:15.142Z,1.11
2023-01-29T11:13:20.915Z,1.17
2023-01-29T11:18:24.469Z,1.26
2023-01-29T11:23:32.263Z,1.38
2023-01-29T11:28:47.720Z,1.47
2023-01-29T11:33:54.320Z,1.47
2023-01-29T11:39:28.253Z,1.46
2023-01-29T11:44:42.412Z,1.45
2023-01-29T11:49:52.661Z,1.42
2023-01-29T11:55:26.382Z,1.38
2023-01-29T12:00:33.802Z,1.36
2023-01-29T12:05:40.439Z,1.37
2023-01-29T12:10:44.211Z,1.39
2023-01-29T12:15:49.317Z,1.55
2023-01-29T12:20:58.743Z,1.71
2023-01-29T12:26:18.038Z,1.71
2023-01-29T12:32:01.603Z,1.63
2023-01-29T12:37:46.154Z,1.57
2023-01-29T12:42:55.695Z,1.54
2023-01-29T12:48:19.459Z,1.56
2023-01-29T12:53:37.727Z,1.60
2023-01-29T12:58:49.667Z,1.66
2023-01-29T13:04:10.250Z,1.74
2023-01-29T13:09:23.194Z,1.77
2023-01-29T13:14:49.930Z,1.80
2023-01-29T13:19:58.198Z,1.80
2023-01-29T13:25:05.767Z,1.80
2023-01-29T13:30:28.237Z,1.75
2023-01-29T13:35:31.359Z,1.73
2023-01-29T13:40:36.986Z,1.66
2023-01-29T13:45:45.338Z,1.60
2023-01-29T13:50:51.028Z,1.65
2023-01-29T13:55:54.061Z,1.78
2023-01-29T14:00:58.064Z,1.82
2023-01-29T14:06:01.134Z,1.79
2023-01-29T14:11:16.477Z,1.75
2023-01-29T14:16:19.409Z,1.70
2023-01-29T14:21:28.494Z,1.70
2023-01-29T14:26:45.700Z,1.70
2023-01-29T14:31:58.489Z,1.66
2023-01-29T14:37:31.708Z,1.62
2023-01-29T14:42:44.413Z,1.63
2023-01-29T14:47:47.312Z,1.72
2023-01-29T14:52:54.124Z,1.78
2023-01-29T14:57:58.432Z,1.79
2023-01-29T15:03:05.197Z,1.75
2023-01-29T15:09:00.353Z,1.69
2023-01-29T15:14:33.227Z,1.60
2023-01-29T15:19:48.573Z,1.53
2023-01-29T15:25:15.244Z,1.48
2023-01-29T15:30:22.822Z,1.50
2023-01-29T15:35:37.357Z,1.55
2023-01-29T15:40:40.487Z,1.58
2023-01-29T15:45:43.516Z,1.56
2023-01-29T15:50:46.761Z,1.55
2023-01-29T15:55:51.771Z,1.50
2023-01-29T16:00:57.766Z,1.44
2023-01-29T16:06:02.064Z,1.42
2023-01-29T16:11:07.780Z,1.45
2023-01-29T16:16:21.781Z,1.47
2023-01-29T16:21:38.704Z,1.48
2023-01-29T16:26:50.765Z,1.46
2023-01-29T16:32:00.728Z,1.39
2023-01-29T16:37:09.094Z,1.33
2023-01-29T16:42:20.102Z,1.34
2023-01-29T16:47:36.089Z,1.37
2023-01-29T16:52:39.034Z,1.33
2023-01-29T16:57:44.145Z,1.30
2023-01-29T17:02:47.968Z,1.23
2023-01-29T17:07:51.120Z,1.22
2023-01-29T17:13:08.245Z,1.32
2023-01-29T17:18:25.116Z,1.38
2023-01-29T17:23:28.255Z,1.35
2023-01-29T17:28:31.204Z,1.31
2023-01-29T17:33:41.991Z,1.28
2023-01-29T17:38:46.330Z,1.26
2023-01-29T17:43:49.277Z,1.31
2023-01-29T17:48:52.520Z,1.36
2023-01-29T17:53:55.486Z,1.34
2023-01-29T17:58:58.441Z,1.28
2023-01-29T18:04:01.590Z,1.24
2023-01-29T18:09:05.065Z,1.25
2023-01-29T18:14:13.643Z,1.33
2023-01-29T18:19:31.174Z,1.34
2023-01-29T18:24:36.233Z,1.35
2023-01-29T18:29:39.226Z,1.34
2023-01-29T18:34:42.202Z,1.27
2023-01-29T18:39:45.190Z,1.27
2023-01-29T18:44:48.958Z,1.31
2023-01-29T18:49:52.270Z,1.32
2023-01-29T18:54:55.651Z,1.29
2023-01-29T18:59:58.571Z,1.20
2023-01-29T19:05:01.748Z,1.15
2023-01-29T19:10:12.711Z,1.18
2023-01-29T19:15:20.658Z,1.25
2023-01-29T19:20:23.851Z,1.28
2023-01-29T19:25:27.222Z,1.27
2023-01-29T19:30:30.273Z,1.23
2023-01-29T19:35:33.627Z,1.20
2023-01-29T19:40:38.982Z,1.20
2023-01-29T19:45:49.420Z,1.23
2023-01-29T19:50:59.765Z,1.31
2023-01-29T19:56:10.112Z,1.38
2023-01-29T20:01:20.287Z,1.41
2023-01-29T20:06:27.261Z,1.36
2023-01-29T20:11:31.214Z,1.29
2023-01-29T20:16:34.127Z,1.23
2023-01-29T20:21:39.176Z,1.26
2023-01-29T20:26:43.188Z,1.30
2023-01-29T20:31:46.176Z,1.32
2023-01-29T20:36:49.186Z,1.32
2023-01-29T20:41:52.215Z,1.31
2023-01-29T20:46:55.215Z,1.31
2023-01-29T20:51:58.268Z,1.38
2023-01-29T20:57:01.223Z,1.38
2023-01-29T21:02:04.349Z,1.35
2023-01-29T21:07:07.349Z,1.34
2023-01-29T21:12:11.486Z,1.34
2023-01-29T21:17:14.429Z,1.45
2023-01-29T21:22:17.478Z,1.56
2023-01-29T21:27:20.434Z,1.60
2023-01-29T21:32:23.439Z,1.60
2023-01-29T21:37:26.791Z,1.60
2023-01-29T21:42:48.444Z,1.54
2023-01-29T21:47:51.464Z,1.57
2023-01-29T21:52:54.425Z,1.67
2023-01-29T21:57:57.387Z,1.69
2023-01-29T22:03:00.548Z,1.64
2023-01-29T22:08:04.954Z,1.56
2023-01-29T22:13:08.024Z,1.53
2023-01-29T22:18:11.010Z,1.56
2023-01-29T22:23:14.096Z,1.66
2023-01-29T22:28:18.582Z,1.69
2023-01-29T22:33:21.571Z,1.71
2023-01-29T22:38:25.007Z,1.67
2023-01-29T22:43:29.336Z,1.62
2023-01-29T22:48:32.395Z,1.66
2023-01-29T22:53:54.241Z,1.69
2023-01-29T22:59:02.792Z,1.67
2023-01-29T23:04:05.805Z,1.63
2023-01-29T23:09:08.922Z,1.57
2023-01-29T23:14:11.865Z,1.60
2023-01-29T23:19:14.884Z,1.65
2023-01-29T23:24:17.831Z,1.70
2023-01-29T23:29:20.874Z,1.74
2023-01-29T23:34:24.060Z,1.71
2023-01-29T23:39:27.037Z,1.65
2023-01-29T23:44:30.039Z,1.66
2023-01-29T23:49:33.024Z,1.69
2023-01-29T23:54:36.008Z,1.70
2023-01-29T23:59:39.019Z,1.71
